map of OPF home
OPF - Airport
Location
City:  Miami, Florida, United States
Name:Opa-Locka Executive Airport
ICAO:KOPF
IATA:OPF
FAA LID:OPF

Details
Type:Airport (Airfield)
Use:Public/Civil, International (customs landing rights)
Latitude:2554'27"N (25.907417)
Longitude:8016'42"W (-80.278221)
Datum:WGS 1984
Elevation:8 ft (2 m)
Variation:6.62W (WMM2015 magnetic declination)
-0.10 annual change
Runways:3
Longest:8002 × 150 ft (2439 × 45.5 m), paved

Time
Time Zone:UTC-5 (DST-4)
Local Time:

Weather
METAR:KOPF 222253Z 08012KT 10SM FEW030 29/23 A3003 RMK AO2 SLP170 T02940228
TAF:KOPF 222320Z 2300/2324 10010KT P6SM FEW030
FM230600 11006KT P6SM SCT050
FM231400 12012KT P6SM SCT030

Related Locations
Nearby:
Farthest:USL: 11597 mi / 18663 km
Useless Loop, WA, AU

Find:

   beyond  
but within

Other Information
Maps:
NOTAMs:
Links:
Sources:

  
flag of United States
flag of Florida
flag of Miami
  

Airport Diagram

Airport diagram for OPF

Airport diagram PDF

Sectional Chart

Flight Planning
at skyvector.com

Satellite Image

Google Maps Satellite view

 

Copyright © 2004-2017 Karl L. Swartz. All rights reserved.
The Great Circle Mapper name and logo are trademarks of the Great Circle Mapper.
All other trademarks mentioned herein belong to their respective owners.
Please see credits for attibutions and further copyright information.

  Follow gcmap on Facebook Follow gcmap on Twitter Follow gcmap on Google+ GCmap on LinkedIn

hCard Microformat

Geo Microformat